Berenice — FORK — position and weather

sailwx.info

Track history (hours):
 
Tides and Currents Weather Stations Pressure Air Temp Water Temp Dewpoint Dewpoint Depression Visibility Wind Speed Wind Dir Waves Ship Positions

Berenice

Last reported at 2017-Nov-17 12:53 UTC. Time now 2017-Nov-22 05:40 UTC.
Position N 47°43' W 004°18'.

Type: Fishing. MMSI: 228118700.

Date/timePositionNaut miles runAvg speedWind from/ knotsBaromVisibWave heightAir tempDewpointWater temp
2017-Nov-17 12:53N 47°43' W 004°18'4 1.2
2017-Nov-17 09:36N 47°41' W 004°14'1 4.1
2017-Nov-17 09:20N 47°42' W 004°14'2 2.9
2017-Nov-17 08:49N 47°43' W 004°12'1 3.2
2017-Nov-17 08:25N 47°43' W 004°11'3 3.0
2017-Nov-17 07:23N 47°42' W 004°15'3 3.0
2017-Nov-17 06:16N 47°43' W 004°19'1 3.4
2017-Nov-17 05:49N 47°44' W 004°21'1 3.8
2017-Nov-17 05:28N 47°45' W 004°22'4 0.3
2017-Nov-16 15:57N 47°45' W 004°16'13 2.5
2017-Nov-16 10:31N 47°35' W 004°03'0 3.5
2017-Nov-16 10:26N 47°35' W 004°03'2 3.7
2017-Nov-16 09:49N 47°34' W 003°60'1 2.5
2017-Nov-16 09:19N 47°35' W 003°58'1 2.8
2017-Nov-16 08:55N 47°36' W 003°59'2 3.1
2017-Nov-16 08:10N 47°37' W 004°02'1 3.1
2017-Nov-16 07:45N 47°37' W 004°03'1 3.3
2017-Nov-16 07:29N 47°37' W 004°05'4 3.5
2017-Nov-16 06:17N 47°39' W 004°10'5 7.9
2017-Nov-16 05:36N 47°43' W 004°15'1 8.1
2017-Nov-16 05:30N 47°44' W 004°16'2 0.2
2017-Nov-15 15:29N 47°46' W 004°18'12 4.9
2017-Nov-15 13:06N 47°36' W 004°08'5 1.5
2017-Nov-15 09:37N 47°35' W 004°15'2 0.7
2017-Nov-15 07:01N 47°34' W 004°17'3 3.8
2017-Nov-15 06:19N 47°36' W 004°18'3 8.4
2017-Nov-15 05:57N 47°39' W 004°18'5 8.3
2017-Nov-15 05:21N 47°44' W 004°18'3 0.2
2017-Nov-14 16:08N 47°47' W 004°18'1 8.8
2017-Nov-14 15:59N 47°46' W 004°17'2 0.2
2017-Nov-14 05:26N 47°44' W 004°16'  
2017-Nov-10 15:45N 47°46' W 004°18'2 8.2
2017-Nov-10 15:27N 47°44' W 004°17'5 0.5
2017-Nov-10 06:01N 47°40' W 004°14'1 8.6
2017-Nov-10 05:52N 47°41' W 004°14'3 8.7
2017-Nov-10 05:30N 47°44' W 004°17'3 0.2
2017-Nov-09 16:02N 47°47' W 004°18'1 8.6
2017-Nov-09 15:54N 47°45' W 004°18'3 0.3
2017-Nov-09 05:33N 47°42' W 004°18'3 8.7
2017-Nov-09 05:14N 47°45' W 004°18'2 8.1
2017-Nov-09 04:59N 47°47' W 004°18'1 0.0
2017-Nov-08 15:48N 47°47' W 004°18'3 8.6
2017-Nov-08 15:24N 47°43' W 004°20'3 7.3
2017-Nov-08 14:58N 47°41' W 004°22'1 2.6
2017-Nov-08 14:27N 47°39' W 004°22'4 0.5
2017-Nov-08 05:49N 47°42' W 004°17'3 8.4
2017-Nov-08 05:30N 47°44' W 004°17'3 0.2
2017-Nov-07 16:00N 47°47' W 004°18'3 5.8
2017-Nov-07 15:30N 47°45' W 004°21'1 2.0
2017-Nov-07 15:00N 47°44' W 004°20'2 2.8
2017-Nov-07 14:28N 47°43' W 004°18'1 2.4
2017-Nov-07 13:58N 47°44' W 004°20'2 3.3
2017-Nov-07 13:30N 47°44' W 004°22'1 2.3
2017-Nov-07 12:56N 47°43' W 004°22'  
Track history (hours):
 
Tides and Currents Weather Stations Pressure Air Temp Water Temp Dewpoint Dewpoint Depression Visibility Wind Speed Wind Dir Waves Ship Positions

Berenice

Last reported at 2017-Nov-17 12:53 UTC. Time now 2017-Nov-22 05:40 UTC.
Position N 47°43' W 004°18'.

Type: Fishing. MMSI: 228118700.

Date/timePositionNaut miles runAvg speedWind from/ knotsBaromVisibWave heightAir tempDewpointWater temp
2017-Nov-17 12:53N 47°43' W 004°18'4 1.2
2017-Nov-17 09:36N 47°41' W 004°14'1 4.1
2017-Nov-17 09:20N 47°42' W 004°14'2 2.9
2017-Nov-17 08:49N 47°43' W 004°12'1 3.2
2017-Nov-17 08:25N 47°43' W 004°11'3 3.0
2017-Nov-17 07:23N 47°42' W 004°15'3 3.0
2017-Nov-17 06:16N 47°43' W 004°19'1 3.4
2017-Nov-17 05:49N 47°44' W 004°21'1 3.8
2017-Nov-17 05:28N 47°45' W 004°22'4 0.3
2017-Nov-16 15:57N 47°45' W 004°16'13 2.5
2017-Nov-16 10:31N 47°35' W 004°03'0 3.5
2017-Nov-16 10:26N 47°35' W 004°03'2 3.7
2017-Nov-16 09:49N 47°34' W 003°60'1 2.5
2017-Nov-16 09:19N 47°35' W 003°58'1 2.8
2017-Nov-16 08:55N 47°36' W 003°59'2 3.1
2017-Nov-16 08:10N 47°37' W 004°02'1 3.1
2017-Nov-16 07:45N 47°37' W 004°03'1 3.3
2017-Nov-16 07:29N 47°37' W 004°05'4 3.5
2017-Nov-16 06:17N 47°39' W 004°10'5 7.9
2017-Nov-16 05:36N 47°43' W 004°15'1 8.1
2017-Nov-16 05:30N 47°44' W 004°16'2 0.2
2017-Nov-15 15:29N 47°46' W 004°18'12 4.9
2017-Nov-15 13:06N 47°36' W 004°08'5 1.5
2017-Nov-15 09:37N 47°35' W 004°15'2 0.7
2017-Nov-15 07:01N 47°34' W 004°17'3 3.8
2017-Nov-15 06:19N 47°36' W 004°18'3 8.4
2017-Nov-15 05:57N 47°39' W 004°18'5 8.3
2017-Nov-15 05:21N 47°44' W 004°18'3 0.2
2017-Nov-14 16:08N 47°47' W 004°18'1 8.8
2017-Nov-14 15:59N 47°46' W 004°17'2 0.2
2017-Nov-14 05:26N 47°44' W 004°16'  
2017-Nov-10 15:45N 47°46' W 004°18'2 8.2
2017-Nov-10 15:27N 47°44' W 004°17'5 0.5
2017-Nov-10 06:01N 47°40' W 004°14'1 8.6
2017-Nov-10 05:52N 47°41' W 004°14'3 8.7
2017-Nov-10 05:30N 47°44' W 004°17'3 0.2
2017-Nov-09 16:02N 47°47' W 004°18'1 8.6
2017-Nov-09 15:54N 47°45' W 004°18'3 0.3
2017-Nov-09 05:33N 47°42' W 004°18'3 8.7
2017-Nov-09 05:14N 47°45' W 004°18'2 8.1
2017-Nov-09 04:59N 47°47' W 004°18'1 0.0
2017-Nov-08 15:48N 47°47' W 004°18'3 8.6
2017-Nov-08 15:24N 47°43' W 004°20'3 7.3
2017-Nov-08 14:58N 47°41' W 004°22'1 2.6
2017-Nov-08 14:27N 47°39' W 004°22'4 0.5
2017-Nov-08 05:49N 47°42' W 004°17'3 8.4
2017-Nov-08 05:30N 47°44' W 004°17'3 0.2
2017-Nov-07 16:00N 47°47' W 004°18'3 5.8
2017-Nov-07 15:30N 47°45' W 004°21'1 2.0
2017-Nov-07 15:00N 47°44' W 004°20'2 2.8
2017-Nov-07 14:28N 47°43' W 004°18'1 2.4
2017-Nov-07 13:58N 47°44' W 004°20'2 3.3
2017-Nov-07 13:30N 47°44' W 004°22'1 2.3
2017-Nov-07 12:56N 47°43' W 004°22'  

Dump ship's entire track history